Prizren, Kosovo

Saat: 11:27 AM CEST Tarih: 23 Ağustos 2014 (GMT +0200)
ITETOVO1 | Change Station
CLOSE
Current Station
Kişisel Havadurumu İstasyonları
Location: Tetovo, MK
Yükseklik: 1709 ft
Nearby Weather Stations

Elev 1709 ft 42.01 °N, 20.96 °E | Updated 10 minutes ago

Clear
Açık
85.6
Feels Like 86
N
1.1
Rüzgar Değişken Rüzgar from Güney
Gusts 6.7 mil

Bugün
High -- | Low -- F°
--% Chance of Precip.
Dün
High -- | Low -- F°
Precip. -- inç
5:52 AM 7:26 PM
Hilal, 4% visible
Basınç 30.01 inç
Görüş Uzaklığı -9999.0 mil
Bulutlar
Sıcaklık endeksi 86
Çiğ noktası 61
Nem oranı 44%
Yağış 0.00 inç
Kar Kalınlığı Not available.
Not available.
Pollen Not available.
Hava Kalitesi Not available.
Flu Activity Not available.
METAR LWSK 230900Z 27003KT CAVOK 28/17 Q1016 NOSIG

More Conditions Fewer Conditions

Basınç 30.01 inç
Görüş Uzaklığı -9999.0 mil
Bulutlar
Sıcaklık endeksi 86
Çiğ noktası 61
Nem oranı 44%
Yağış 0.00 inç
Kar Kalınlığı Not available.
Not available.
Pollen Not available.
Hava Kalitesi Not available.
Flu Activity Not available.
METAR LWSK 230900Z 27003KT CAVOK 28/17 Q1016 NOSIG

More Conditions Fewer Conditions

10-Day Weather Forecast

Almanac

Gökbilim

Aug. 23, 2014 Rise Set
Gerçek Zaman 05:52 CEST 19:26 CEST
Günlük Tan 05:23 CEST 19:55 CEST
Deniz Tanı 04:47 CEST 20:31 CEST
Geceyarısı Yıldız Zamanı 04:09 CEST 21:08 CEST
Ay 03:51 CEST 18:00 CEST
Görünür Işığın Uzunluğu 14h 32m
Günün Uzunluğu
13h 33m
Tomorrow will be 2m 38s shorter.
Hilal, 4% of the Moon is Illuminated
Bugün
Hilal
Aug 25
New
Sep 2
İlk Hilãl
Sep 8
Dolunay
Sep 15
Son Hilãl

Community

WunderPhotos

Upload Photos

1,746,396 photos uploaded!

WunderBlogs® & News

By Dr. Jeff Masters
Director of Meteorology, Weather Underground
By Kari Strenfel
Meteorologist, Weather Underground
By Christopher C. Burt
Weather Historian, Weather Underground
August 23, 2014
August 23, 2014
August 22, 2014

Nearby

Kar Kalınlığı

Not available.

Earthquake Activity

Şehir Distance Mag. Time & Date
No recent earthquake activity has been reported nearby.
Minimum magnitude displayed is 2.5.

Coastal Water Temperatures

Yer Sıcaklık
No Stations Reporting

Nearby Weather Stations